Terminal Aerodrome Forecast
Issued by NWS Sioux Falls, SD

Home | Current Version | Previous Version | Graphics & Text | Print | Product List | Glossary Off
Versions: 1 2 3 4 5 6 7 8 9 10 11 12 13

000
FTUS43 KFSD 101100
TAFFSD
TAF
KFSD 101139Z 1012/1112 15005KT P6SM SCT080
     FM101500 16017G24KT P6SM SCT060 BKN200
     FM110100 16012KT P6SM SCT050 BKN150=

USA.gov is the U.S. government's official web portal to all federal, state and local government web resources and services.